createdAt,value
2018-06-27T00:01:43.325Z,19.67
2018-06-27T00:04:11.963Z,18.70
2018-06-27T00:06:40.861Z,19.60
2018-06-27T00:09:12.903Z,20.70
2018-06-27T00:11:41.423Z,17.80
2018-06-27T00:14:10.971Z,18.30
2018-06-27T00:16:39.357Z,17.63
2018-06-27T00:19:08.203Z,20.43
2018-06-27T00:21:36.621Z,21.63
2018-06-27T00:24:05.347Z,23.50
2018-06-27T00:26:33.992Z,19.30
2018-06-27T00:29:02.704Z,18.67
2018-06-27T00:31:31.331Z,19.57
2018-06-27T00:33:59.770Z,19.07
2018-06-27T00:36:28.127Z,18.13
2018-06-27T00:38:56.505Z,26.00
2018-06-27T00:41:25.154Z,19.67
2018-06-27T00:43:53.560Z,22.10
2018-06-27T00:46:22.496Z,22.90
2018-06-27T00:48:50.912Z,20.10
2018-06-27T00:51:19.315Z,22.30
2018-06-27T00:53:53.600Z,20.17
2018-06-27T00:56:22.671Z,18.87
2018-06-27T00:58:50.939Z,18.80
2018-06-27T01:01:19.508Z,19.53
2018-06-27T01:03:48.510Z,22.73
2018-06-27T01:06:17.140Z,23.53
2018-06-27T01:08:45.835Z,28.63
2018-06-27T01:11:14.317Z,21.93
2018-06-27T01:13:43.100Z,23.50
2018-06-27T01:16:25.034Z,24.77
2018-06-27T01:18:54.460Z,22.77
2018-06-27T01:21:23.397Z,26.47
2018-06-27T01:23:52.174Z,22.10
2018-06-27T01:26:21.023Z,25.60
2018-06-27T01:28:49.700Z,27.93
2018-06-27T01:31:18.127Z,26.97
2018-06-27T01:33:46.766Z,24.53
2018-06-27T01:36:15.371Z,24.53
2018-06-27T01:38:43.999Z,27.97
2018-06-27T01:41:12.805Z,28.53
2018-06-27T01:43:41.262Z,23.73
2018-06-27T01:46:09.656Z,27.87
2018-06-27T01:48:38.175Z,25.27
2018-06-27T01:51:06.823Z,24.07
2018-06-27T01:53:36.578Z,21.47
2018-06-27T01:56:07.395Z,27.17
2018-06-27T01:58:36.050Z,23.07
2018-06-27T02:01:04.780Z,21.87
2018-06-27T02:03:33.236Z,24.13
2018-06-27T02:06:01.929Z,23.13
2018-06-27T02:08:30.724Z,25.33
2018-06-27T02:10:59.164Z,28.07
2018-06-27T02:13:27.688Z,21.57
2018-06-27T02:15:56.325Z,27.10
2018-06-27T02:18:24.772Z,22.83
2018-06-27T02:20:53.333Z,27.37
2018-06-27T02:23:21.788Z,22.23
2018-06-27T02:25:50.416Z,25.47
2018-06-27T02:28:18.939Z,22.53
2018-06-27T02:30:47.465Z,23.70
2018-06-27T02:33:21.465Z,27.50
2018-06-27T02:35:50.145Z,26.67
2018-06-27T02:38:18.643Z,30.43
2018-06-27T02:40:47.344Z,25.73
2018-06-27T02:45:46.436Z,26.90
2018-06-27T02:48:14.937Z,28.37
2018-06-27T02:50:43.637Z,25.93
2018-06-27T02:53:12.441Z,29.83
2018-06-27T02:55:41.083Z,28.87
2018-06-27T02:58:09.547Z,27.47
2018-06-27T03:00:38.180Z,31.60
2018-06-27T03:03:06.763Z,24.63
2018-06-27T03:05:35.177Z,27.80
2018-06-27T03:08:03.677Z,24.33
2018-06-27T03:10:32.594Z,29.30
2018-06-27T03:13:01.248Z,28.43
2018-06-27T03:15:29.599Z,24.70
2018-06-27T03:17:58.017Z,26.63
2018-06-27T03:20:26.699Z,26.20
2018-06-27T03:22:55.085Z,28.10
2018-06-27T03:25:23.559Z,27.30
2018-06-27T03:27:52.063Z,26.33
2018-06-27T03:30:20.629Z,25.50
2018-06-27T03:32:49.120Z,24.50
2018-06-27T03:35:17.720Z,26.67
2018-06-27T03:37:46.277Z,27.57
2018-06-27T03:40:15.218Z,25.80
2018-06-27T03:42:43.936Z,26.67
2018-06-27T03:45:12.342Z,24.43
2018-06-27T03:47:40.892Z,23.27
2018-06-27T03:50:09.512Z,28.30
2018-06-27T03:52:45.552Z,24.93
2018-06-27T03:55:14.385Z,27.40
2018-06-27T03:57:43.009Z,28.10
2018-06-27T04:00:12.267Z,27.33
2018-06-27T04:02:40.766Z,26.60
2018-06-27T04:05:09.462Z,32.37
2018-06-27T04:07:38.255Z,30.83
2018-06-27T04:10:08.541Z,33.07
2018-06-27T04:12:37.100Z,30.53
2018-06-27T04:15:06.136Z,29.37
2018-06-27T04:17:34.773Z,28.07
2018-06-27T04:20:03.449Z,25.70
2018-06-27T04:22:34.121Z,30.80
2018-06-27T04:25:02.656Z,30.03
2018-06-27T04:27:31.804Z,27.33
2018-06-27T04:30:01.954Z,25.33
2018-06-27T04:32:30.780Z,31.10
2018-06-27T04:35:00.309Z,32.63
2018-06-27T04:37:29.222Z,28.20
2018-06-27T04:39:58.408Z,32.67
2018-06-27T04:42:27.005Z,27.70
2018-06-27T04:44:55.705Z,29.60
2018-06-27T04:47:24.268Z,28.70
2018-06-27T04:49:52.969Z,29.07
2018-06-27T04:52:21.600Z,35.23
2018-06-27T04:54:50.232Z,28.93
2018-06-27T04:57:19.005Z,31.80
2018-06-27T04:59:47.876Z,34.43
2018-06-27T05:02:16.431Z,30.73
2018-06-27T05:04:44.840Z,34.23
2018-06-27T05:07:13.324Z,31.53
2018-06-27T05:09:42.020Z,31.40
2018-06-27T05:12:10.452Z,33.77
2018-06-27T05:14:38.774Z,29.97
2018-06-27T05:17:07.238Z,32.33
2018-06-27T05:19:41.990Z,36.30
2018-06-27T05:22:10.923Z,37.37
2018-06-27T05:24:39.191Z,34.03
2018-06-27T05:27:08.020Z,32.03
2018-06-27T05:29:36.770Z,33.30
2018-06-27T05:32:05.440Z,30.73
2018-06-27T05:34:34.336Z,36.50
2018-06-27T05:37:03.256Z,31.70
2018-06-27T05:39:31.774Z,31.00
2018-06-27T05:42:00.236Z,30.90
2018-06-27T05:44:28.981Z,27.93
2018-06-27T05:46:57.542Z,30.97
2018-06-27T05:49:26.184Z,40.30
2018-06-27T05:51:54.791Z,30.37
2018-06-27T05:54:27.716Z,39.73
2018-06-27T05:56:56.845Z,31.10
2018-06-27T05:59:25.357Z,30.10
2018-06-27T06:01:55.279Z,29.97
2018-06-27T06:04:24.267Z,30.00
2018-06-27T06:06:53.760Z,34.33
2018-06-27T06:09:22.563Z,32.67
2018-06-27T06:11:50.984Z,34.17
2018-06-27T06:14:19.621Z,28.60
2018-06-27T06:16:48.140Z,30.97
2018-06-27T06:19:16.764Z,30.37
2018-06-27T06:21:45.214Z,32.30
2018-06-27T06:24:14.276Z,28.30
2018-06-27T06:26:42.836Z,29.27
2018-06-27T06:29:11.367Z,35.17
2018-06-27T06:31:40.264Z,32.43
2018-06-27T06:34:08.916Z,34.07
2018-06-27T06:36:37.395Z,34.47
2018-06-27T06:39:08.556Z,30.10
2018-06-27T06:41:37.452Z,31.60
2018-06-27T06:44:06.194Z,29.23
2018-06-27T06:46:35.297Z,32.37
2018-06-27T06:49:04.121Z,32.50
2018-06-27T06:51:32.716Z,34.77
2018-06-27T06:54:02.769Z,29.60
2018-06-27T06:56:32.201Z,28.03
2018-06-27T06:59:01.315Z,25.33
2018-06-27T07:01:29.835Z,30.27
2018-06-27T07:03:58.407Z,32.87
2018-06-27T07:06:27.105Z,29.33
2018-06-27T07:08:56.343Z,28.20
2018-06-27T07:11:25.144Z,31.27
2018-06-27T07:13:53.572Z,33.93
2018-06-27T07:16:24.964Z,24.70
2018-06-27T07:18:54.207Z,26.17
2018-06-27T07:21:23.720Z,25.80
2018-06-27T07:23:52.085Z,25.57
2018-06-27T07:26:20.758Z,25.37
2018-06-27T07:28:50.451Z,26.07
2018-06-27T07:31:19.178Z,25.83
2018-06-27T07:33:48.043Z,29.07
2018-06-27T07:36:17.114Z,28.40
2018-06-27T07:38:45.661Z,31.80
2018-06-27T07:41:14.535Z,25.23
2018-06-27T07:43:43.404Z,28.80
2018-06-27T07:46:11.817Z,30.33
2018-06-27T07:48:40.396Z,27.70
2018-06-27T07:51:08.847Z,31.57
2018-06-27T07:53:38.248Z,32.03
2018-06-27T07:56:07.372Z,33.47
2018-06-27T07:58:36.067Z,29.50
2018-06-27T08:01:04.676Z,31.40
2018-06-27T08:03:33.004Z,26.77
2018-06-27T08:06:01.729Z,28.20
2018-06-27T08:08:30.188Z,29.93
2018-06-27T08:10:58.889Z,24.77
2018-06-27T08:13:27.476Z,24.80
2018-06-27T08:15:56.083Z,26.53
2018-06-27T08:18:24.553Z,28.33
2018-06-27T08:20:53.200Z,22.20
2018-06-27T08:23:22.072Z,27.70
2018-06-27T08:25:54.924Z,25.70
2018-06-27T08:28:23.372Z,22.03
2018-06-27T08:30:51.972Z,20.67
2018-06-27T08:33:21.439Z,25.27
2018-06-27T08:35:50.442Z,26.17
2018-06-27T08:38:18.991Z,18.53
2018-06-27T08:40:47.648Z,24.40
2018-06-27T08:43:16.077Z,18.97
2018-06-27T08:45:44.981Z,25.00
2018-06-27T08:48:13.603Z,26.73
2018-06-27T08:50:41.954Z,24.33
2018-06-27T08:53:10.754Z,24.50
2018-06-27T08:55:39.241Z,24.03
2018-06-27T08:58:08.364Z,20.50
2018-06-27T09:00:36.960Z,23.43
2018-06-27T09:03:05.717Z,19.10
2018-06-27T09:05:38.613Z,22.10
2018-06-27T09:08:07.951Z,17.33
2018-06-27T09:10:36.547Z,23.97
2018-06-27T09:13:05.168Z,22.67
2018-06-27T09:15:33.620Z,28.53
2018-06-27T09:18:02.267Z,21.10
2018-06-27T09:20:30.784Z,23.13
2018-06-27T09:25:38.033Z,24.70
2018-06-27T09:28:06.574Z,18.93
2018-06-27T09:30:35.183Z,21.97
2018-06-27T09:33:04.094Z,27.93
2018-06-27T09:35:33.457Z,22.03
2018-06-27T09:38:02.888Z,25.87
2018-06-27T09:40:31.253Z,24.03
2018-06-27T09:43:03.452Z,16.90
2018-06-27T09:45:32.280Z,24.57
2018-06-27T09:48:01.019Z,21.13
2018-06-27T09:50:29.896Z,22.33
2018-06-27T09:52:58.742Z,22.50
2018-06-27T09:55:27.141Z,24.67
2018-06-27T09:57:55.914Z,18.87
2018-06-27T10:00:30.074Z,19.63
2018-06-27T10:02:58.725Z,22.00
2018-06-27T10:05:27.377Z,24.23
2018-06-27T10:07:55.967Z,20.90
2018-06-27T10:10:24.663Z,21.40
2018-06-27T10:12:53.640Z,24.03
2018-06-27T10:15:22.345Z,32.63
2018-06-27T10:17:50.944Z,22.73
2018-06-27T10:20:19.449Z,23.70
2018-06-27T10:22:48.128Z,27.10
2018-06-27T10:25:16.700Z,24.07
2018-06-27T10:27:45.942Z,31.53
2018-06-27T10:30:14.437Z,29.87
2018-06-27T10:32:43.821Z,28.00
2018-06-27T10:35:12.228Z,27.20
2018-06-27T10:37:40.866Z,23.40
2018-06-27T10:40:09.260Z,18.83
2018-06-27T10:42:37.914Z,20.23
2018-06-27T10:45:06.319Z,17.13
2018-06-27T10:47:34.593Z,17.23
2018-06-27T10:50:03.282Z,18.10
2018-06-27T10:52:31.766Z,16.97
2018-06-27T10:55:05.024Z,11.87
2018-06-27T10:57:33.497Z,16.50
2018-06-27T11:00:02.161Z,12.33
2018-06-27T11:02:34.142Z,12.70
2018-06-27T11:05:06.174Z,10.90
2018-06-27T11:07:34.831Z,13.03
2018-06-27T11:10:04.302Z,17.33
2018-06-27T11:12:32.794Z,13.40
2018-06-27T11:15:01.397Z,13.60
2018-06-27T11:17:29.929Z,9.27
2018-06-27T11:19:58.423Z,12.00
2018-06-27T11:22:27.067Z,12.57
2018-06-27T11:24:55.540Z,8.83
2018-06-27T11:27:24.993Z,9.70
2018-06-27T11:29:53.695Z,10.47
2018-06-27T11:32:22.620Z,8.33
2018-06-27T11:34:52.985Z,13.00
2018-06-27T11:37:21.734Z,11.47
2018-06-27T11:39:51.322Z,10.53
2018-06-27T11:42:20.777Z,8.03
2018-06-27T11:44:49.134Z,7.90
2018-06-27T11:47:18.694Z,6.77
2018-06-27T11:49:47.267Z,8.53
2018-06-27T11:52:16.170Z,6.03
2018-06-27T11:54:49.491Z,11.57
2018-06-27T11:57:18.002Z,8.47
2018-06-27T11:59:49.095Z,6.87
2018-06-27T12:02:17.801Z,5.27
2018-06-27T12:04:46.268Z,8.37
2018-06-27T12:07:15.306Z,8.80
2018-06-27T12:09:44.025Z,8.73
2018-06-27T12:12:12.530Z,8.90
2018-06-27T12:14:41.426Z,12.70
2018-06-27T12:17:10.005Z,11.00
2018-06-27T12:19:46.034Z,6.97
2018-06-27T12:22:22.640Z,12.83
2018-06-27T12:24:54.474Z,10.07
2018-06-27T12:27:23.195Z,9.67
2018-06-27T12:29:52.242Z,8.50
2018-06-27T12:32:22.181Z,7.97
2018-06-27T12:34:53.110Z,7.17
2018-06-27T12:37:23.310Z,7.80
2018-06-27T12:39:51.972Z,10.53
2018-06-27T12:42:21.656Z,10.10
2018-06-27T12:44:52.249Z,7.87
2018-06-27T12:47:22.802Z,9.53
2018-06-27T12:49:53.791Z,12.53
2018-06-27T12:52:23.077Z,9.00
2018-06-27T12:54:56.248Z,7.03
2018-06-27T12:57:24.872Z,9.23
2018-06-27T12:59:53.608Z,5.63
2018-06-27T13:02:22.366Z,4.50
2018-06-27T13:04:51.058Z,5.40
2018-06-27T13:07:19.322Z,6.43
2018-06-27T13:09:47.727Z,12.00
2018-06-27T13:12:16.369Z,5.07
2018-06-27T13:14:44.950Z,10.30
2018-06-27T13:17:13.956Z,8.87
2018-06-27T13:19:42.442Z,6.60
2018-06-27T13:22:11.065Z,5.33
2018-06-27T13:24:39.789Z,5.80
2018-06-27T13:27:08.284Z,7.47
2018-06-27T13:29:36.853Z,7.13
2018-06-27T13:32:05.582Z,8.77
2018-06-27T13:34:33.925Z,7.53
2018-06-27T13:37:02.707Z,8.10
2018-06-27T13:39:31.313Z,5.50
2018-06-27T13:41:59.963Z,3.80
2018-06-27T13:44:28.794Z,5.40
2018-06-27T13:46:57.836Z,6.40
2018-06-27T13:49:26.739Z,8.00
2018-06-27T13:51:55.412Z,5.30
2018-06-27T13:54:23.957Z,8.73
2018-06-27T13:56:52.959Z,7.93
2018-06-27T13:59:21.459Z,4.73
2018-06-27T14:01:50.030Z,6.93
2018-06-27T14:04:18.689Z,4.33
2018-06-27T14:06:47.098Z,3.87
2018-06-27T14:09:15.761Z,2.23
2018-06-27T14:11:44.336Z,4.27
2018-06-27T14:14:12.876Z,4.67
2018-06-27T14:16:41.362Z,3.17
2018-06-27T14:19:10.114Z,4.07
2018-06-27T14:21:38.854Z,4.63
2018-06-27T14:24:07.518Z,9.03
2018-06-27T14:26:35.993Z,4.30
2018-06-27T14:29:04.719Z,5.37
2018-06-27T14:31:33.244Z,2.83
2018-06-27T14:34:01.778Z,4.13
2018-06-27T14:36:30.381Z,2.80
2018-06-27T14:38:58.892Z,2.90
2018-06-27T14:41:27.549Z,8.90
2018-06-27T14:43:56.476Z,3.80
2018-06-27T14:46:25.037Z,3.00
2018-06-27T14:48:54.013Z,4.60
2018-06-27T14:51:22.609Z,3.87
2018-06-27T14:53:51.064Z,4.17
2018-06-27T14:56:19.731Z,3.40
2018-06-27T14:58:48.415Z,3.27
2018-06-27T15:01:17.194Z,7.53
2018-06-27T15:03:45.897Z,7.50
2018-06-27T15:06:14.768Z,3.50
2018-06-27T15:08:44.000Z,4.07
2018-06-27T15:11:12.665Z,6.17
2018-06-27T15:13:41.129Z,6.40
2018-06-27T15:16:09.868Z,4.40
2018-06-27T15:18:39.966Z,7.33
2018-06-27T15:21:08.620Z,5.17
2018-06-27T15:23:37.599Z,5.93
2018-06-27T15:26:06.881Z,3.47
2018-06-27T15:28:35.354Z,3.97
2018-06-27T15:31:04.605Z,5.03
2018-06-27T15:33:33.398Z,4.60
2018-06-27T15:36:02.492Z,7.57
2018-06-27T15:38:31.010Z,4.07
2018-06-27T15:40:59.492Z,6.00
2018-06-27T15:43:28.062Z,9.20
2018-06-27T15:45:57.176Z,11.20
2018-06-27T15:48:25.661Z,6.50
2018-06-27T15:50:54.172Z,6.33
2018-06-27T15:53:23.016Z,3.70
2018-06-27T15:55:52.500Z,4.63
2018-06-27T15:58:20.963Z,4.67
2018-06-27T16:00:49.654Z,4.63
2018-06-27T16:03:18.566Z,6.93
2018-06-27T16:05:47.080Z,8.30
2018-06-27T16:08:15.528Z,7.73
2018-06-27T16:10:44.159Z,7.70
2018-06-27T16:13:12.804Z,5.53
2018-06-27T16:15:41.398Z,4.80
2018-06-27T16:18:09.912Z,9.57
2018-06-27T16:20:38.668Z,5.33
2018-06-27T16:23:07.227Z,7.77
2018-06-27T16:25:35.851Z,8.80
2018-06-27T16:28:04.678Z,6.73
2018-06-27T16:30:33.092Z,4.97
2018-06-27T16:33:01.718Z,7.27
2018-06-27T16:35:30.353Z,6.60
2018-06-27T16:37:58.882Z,5.40
2018-06-27T16:40:27.665Z,5.90
2018-06-27T16:42:56.240Z,6.33
2018-06-27T16:45:25.110Z,4.83
2018-06-27T16:47:56.177Z,5.80
2018-06-27T16:50:26.316Z,4.20
2018-06-27T16:52:55.030Z,5.13
2018-06-27T16:55:23.656Z,9.43
2018-06-27T16:57:52.287Z,6.67
2018-06-27T17:00:20.857Z,5.70
2018-06-27T17:02:49.505Z,7.30
2018-06-27T17:05:18.196Z,4.43
2018-06-27T17:07:46.820Z,3.93
2018-06-27T17:10:15.713Z,4.07
2018-06-27T17:12:44.035Z,6.33
2018-06-27T17:15:12.581Z,2.87
2018-06-27T17:17:41.199Z,5.23
2018-06-27T17:20:10.057Z,5.57
2018-06-27T17:22:38.531Z,4.37
2018-06-27T17:25:07.352Z,4.93
2018-06-27T17:27:35.910Z,3.83
2018-06-27T17:30:04.909Z,5.93
2018-06-27T17:32:33.578Z,3.33
2018-06-27T17:35:03.236Z,4.07
2018-06-27T17:37:32.094Z,8.03
2018-06-27T17:40:00.850Z,6.80
2018-06-27T17:42:29.461Z,4.83
2018-06-27T17:44:57.956Z,4.87
2018-06-27T17:47:26.847Z,4.97
2018-06-27T17:49:55.812Z,4.33
2018-06-27T17:52:24.243Z,6.43
2018-06-27T17:54:52.961Z,4.60
2018-06-27T17:57:21.504Z,2.37
2018-06-27T17:59:50.042Z,3.23
2018-06-27T18:02:18.618Z,3.60
2018-06-27T18:04:47.207Z,4.23
2018-06-27T18:07:16.462Z,2.73
2018-06-27T18:09:45.065Z,3.10
2018-06-27T18:12:13.603Z,1.60
2018-06-27T18:14:42.326Z,2.17
2018-06-27T18:17:11.015Z,6.93
2018-06-27T18:19:39.535Z,3.33
2018-06-27T18:22:08.424Z,6.13
2018-06-27T18:24:37.058Z,4.87
2018-06-27T18:27:05.851Z,3.10
2018-06-27T18:29:34.718Z,1.80
2018-06-27T18:32:03.607Z,2.97
2018-06-27T18:34:32.234Z,4.93
2018-06-27T18:37:01.122Z,5.87
2018-06-27T18:39:29.732Z,3.40
2018-06-27T18:41:58.277Z,1.73
2018-06-27T18:44:26.988Z,1.93
2018-06-27T18:46:55.777Z,1.47
2018-06-27T18:49:24.259Z,2.77
2018-06-27T18:51:52.944Z,2.27
2018-06-27T18:54:21.983Z,2.80
2018-06-27T18:56:50.831Z,2.20
2018-06-27T18:59:19.817Z,4.77
2018-06-27T19:01:48.828Z,3.57
2018-06-27T19:04:17.330Z,3.23
2018-06-27T19:06:45.733Z,3.07
2018-06-27T19:09:14.232Z,2.13
2018-06-27T19:11:42.702Z,2.70
2018-06-27T19:14:11.357Z,3.27
2018-06-27T19:16:39.923Z,1.83
2018-06-27T19:19:08.593Z,3.60
2018-06-27T19:21:37.290Z,5.43
2018-06-27T19:24:06.499Z,2.90
2018-06-27T19:26:35.213Z,3.93
2018-06-27T19:29:03.779Z,3.33
2018-06-27T19:31:32.474Z,1.90
2018-06-27T19:34:01.373Z,3.03
2018-06-27T19:36:30.320Z,3.87
2018-06-27T19:38:58.933Z,1.73
2018-06-27T19:41:27.422Z,1.87
2018-06-27T19:43:56.022Z,2.83
2018-06-27T19:46:24.434Z,2.27
2018-06-27T19:48:53.113Z,3.27
2018-06-27T19:51:21.784Z,6.70
2018-06-27T19:53:50.234Z,3.07
2018-06-27T19:56:18.783Z,2.17
2018-06-27T19:58:47.322Z,2.70
2018-06-27T20:01:15.966Z,1.97
2018-06-27T20:03:44.508Z,4.07
2018-06-27T20:06:13.052Z,3.37
2018-06-27T20:08:41.637Z,4.87
2018-06-27T20:11:10.063Z,2.13
2018-06-27T20:13:39.359Z,3.20
2018-06-27T20:16:08.042Z,3.03
2018-06-27T20:18:36.547Z,2.20
2018-06-27T20:21:05.044Z,2.57
2018-06-27T20:23:33.618Z,6.00
2018-06-27T20:26:02.200Z,3.83
2018-06-27T20:28:30.834Z,4.23
2018-06-27T20:30:59.305Z,6.20
2018-06-27T20:33:27.569Z,3.03
2018-06-27T20:35:56.414Z,2.67
2018-06-27T20:38:25.010Z,2.60
2018-06-27T20:40:53.276Z,4.13
2018-06-27T20:43:21.844Z,5.97
2018-06-27T20:45:50.333Z,4.73
2018-06-27T20:48:18.851Z,4.77
2018-06-27T20:50:47.410Z,2.40
2018-06-27T20:53:15.924Z,6.60
2018-06-27T20:55:44.826Z,4.23
2018-06-27T20:58:13.476Z,3.63
2018-06-27T21:00:42.325Z,4.03
2018-06-27T21:03:11.030Z,5.83
2018-06-27T21:05:39.742Z,2.40
2018-06-27T21:08:08.408Z,6.63
2018-06-27T21:10:37.277Z,4.27
2018-06-27T21:13:05.763Z,2.60
2018-06-27T21:15:34.427Z,3.50
2018-06-27T21:18:03.213Z,3.60
2018-06-27T21:20:31.928Z,2.47
2018-06-27T21:23:00.493Z,2.27
2018-06-27T21:25:28.751Z,2.97
2018-06-27T21:27:57.197Z,4.27
2018-06-27T21:30:25.604Z,4.37
2018-06-27T21:32:54.074Z,6.20
2018-06-27T21:35:22.689Z,3.67
2018-06-27T21:37:51.128Z,2.57
2018-06-27T21:40:19.725Z,3.90
2018-06-27T21:42:48.365Z,4.67
2018-06-27T21:45:17.316Z,3.80
2018-06-27T21:47:45.733Z,3.77
2018-06-27T21:50:14.041Z,4.33
2018-06-27T21:52:42.615Z,4.67
2018-06-27T21:55:11.065Z,6.47
2018-06-27T21:57:39.685Z,5.67
2018-06-27T22:00:10.145Z,4.30
2018-06-27T22:02:38.745Z,3.70
2018-06-27T22:05:11.067Z,4.67
2018-06-27T22:07:40.273Z,2.30
2018-06-27T22:10:12.043Z,4.53
2018-06-27T22:12:40.570Z,6.40
2018-06-27T22:15:09.184Z,2.67
2018-06-27T22:17:37.675Z,5.67
2018-06-27T22:20:06.121Z,3.50
2018-06-27T22:22:34.791Z,4.40
2018-06-27T22:25:03.326Z,4.57
2018-06-27T22:27:31.996Z,7.73
2018-06-27T22:30:00.869Z,3.10
2018-06-27T22:32:29.432Z,5.47
2018-06-27T22:34:58.290Z,3.73
2018-06-27T22:37:27.025Z,7.27
2018-06-27T22:39:55.566Z,3.30
2018-06-27T22:42:24.006Z,5.00
2018-06-27T22:44:53.153Z,2.63
2018-06-27T22:47:21.845Z,3.77
2018-06-27T22:49:50.361Z,4.53
2018-06-27T22:52:18.979Z,3.97
2018-06-27T22:54:47.438Z,7.17
2018-06-27T22:57:15.984Z,4.57
2018-06-27T22:59:44.501Z,5.57
2018-06-27T23:02:13.101Z,3.43
2018-06-27T23:04:41.702Z,3.47
2018-06-27T23:07:10.078Z,3.57
2018-06-27T23:09:38.605Z,3.00
2018-06-27T23:12:07.087Z,4.43
2018-06-27T23:14:35.767Z,11.53
2018-06-27T23:17:04.621Z,3.17
2018-06-27T23:19:33.207Z,3.00
2018-06-27T23:22:02.445Z,3.77
2018-06-27T23:24:31.281Z,3.83
2018-06-27T23:27:00.115Z,2.50
2018-06-27T23:29:28.665Z,4.90
2018-06-27T23:31:57.025Z,5.23
2018-06-27T23:34:25.516Z,3.97
2018-06-27T23:36:54.161Z,3.37
2018-06-27T23:39:22.686Z,5.10
2018-06-27T23:41:51.200Z,3.30
2018-06-27T23:44:19.899Z,3.27
2018-06-27T23:46:48.372Z,2.57
2018-06-27T23:49:16.859Z,3.00
2018-06-27T23:51:45.640Z,4.17
2018-06-27T23:54:14.218Z,3.67
2018-06-27T23:56:42.804Z,4.23
2018-06-27T23:59:11.244Z,3.20
